sensor_id;sensor_type;location;lat;lon;timestamp;P1;durP1;ratioP1;P2;durP2;ratioP2
14141;SDS011;7151;52.246;4.820;2022-12-11T00:02:01;22.87;;;12.07;;
14141;SDS011;7151;52.246;4.820;2022-12-11T00:04:27;20.83;;;11.77;;
14141;SDS011;7151;52.246;4.820;2022-12-11T00:06:52;22.50;;;11.63;;
14141;SDS011;7151;52.246;4.820;2022-12-11T00:09:18;22.17;;;11.60;;
14141;SDS011;7151;52.246;4.820;2022-12-11T00:11:45;24.93;;;13.43;;
14141;SDS011;7151;52.246;4.820;2022-12-11T00:14:11;23.47;;;12.93;;
14141;SDS011;7151;52.246;4.820;2022-12-11T00:16:38;24.07;;;12.93;;
14141;SDS011;7151;52.246;4.820;2022-12-11T00:19:04;26.50;;;13.33;;
14141;SDS011;7151;52.246;4.820;2022-12-11T00:21:30;24.33;;;13.00;;
14141;SDS011;7151;52.246;4.820;2022-12-11T00:23:55;23.30;;;12.07;;
14141;SDS011;7151;52.246;4.820;2022-12-11T00:26:21;30.17;;;13.93;;
14141;SDS011;7151;52.246;4.820;2022-12-11T00:28:47;23.23;;;12.73;;
14141;SDS011;7151;52.246;4.820;2022-12-11T00:31:17;26.20;;;13.93;;
14141;SDS011;7151;52.246;4.820;2022-12-11T00:33:44;26.77;;;13.80;;
14141;SDS011;7151;52.246;4.820;2022-12-11T00:36:20;26.27;;;14.17;;
14141;SDS011;7151;52.246;4.820;2022-12-11T00:38:48;29.43;;;14.30;;
14141;SDS011;7151;52.246;4.820;2022-12-11T00:41:14;24.80;;;14.03;;
14141;SDS011;7151;52.246;4.820;2022-12-11T00:43:40;28.57;;;14.27;;
14141;SDS011;7151;52.246;4.820;2022-12-11T00:46:06;23.80;;;13.40;;
14141;SDS011;7151;52.246;4.820;2022-12-11T00:48:32;31.60;;;14.37;;
14141;SDS011;7151;52.246;4.820;2022-12-11T00:50:58;24.73;;;13.73;;
14141;SDS011;7151;52.246;4.820;2022-12-11T00:53:24;26.23;;;13.97;;
14141;SDS011;7151;52.246;4.820;2022-12-11T00:55:49;33.20;;;14.97;;
14141;SDS011;7151;52.246;4.820;2022-12-11T00:58:15;31.57;;;15.17;;
14141;SDS011;7151;52.246;4.820;2022-12-11T01:00:41;26.57;;;14.00;;
14141;SDS011;7151;52.246;4.820;2022-12-11T01:03:07;26.13;;;14.57;;
14141;SDS011;7151;52.246;4.820;2022-12-11T01:05:33;28.17;;;13.57;;
14141;SDS011;7151;52.246;4.820;2022-12-11T01:07:59;33.67;;;14.83;;
14141;SDS011;7151;52.246;4.820;2022-12-11T01:10:25;27.57;;;14.90;;
14141;SDS011;7151;52.246;4.820;2022-12-11T01:15:22;30.03;;;14.60;;
14141;SDS011;7151;52.246;4.820;2022-12-11T01:17:50;28.33;;;15.87;;
14141;SDS011;7151;52.246;4.820;2022-12-11T01:20:17;32.20;;;15.30;;
14141;SDS011;7151;52.246;4.820;2022-12-11T01:22:44;26.97;;;14.50;;
14141;SDS011;7151;52.246;4.820;2022-12-11T01:25:10;27.13;;;13.80;;
14141;SDS011;7151;52.246;4.820;2022-12-11T01:27:36;26.47;;;14.33;;
14141;SDS011;7151;52.246;4.820;2022-12-11T01:30:03;25.30;;;13.63;;
14141;SDS011;7151;52.246;4.820;2022-12-11T01:32:31;26.30;;;14.13;;
14141;SDS011;7151;52.246;4.820;2022-12-11T01:34:57;28.70;;;14.80;;
14141;SDS011;7151;52.246;4.820;2022-12-11T01:37:22;33.23;;;15.23;;
14141;SDS011;7151;52.246;4.820;2022-12-11T01:39:48;26.57;;;13.63;;
14141;SDS011;7151;52.246;4.820;2022-12-11T01:42:15;28.67;;;15.73;;
14141;SDS011;7151;52.246;4.820;2022-12-11T01:47:08;25.50;;;13.20;;
14141;SDS011;7151;52.246;4.820;2022-12-11T01:49:33;24.97;;;13.37;;
14141;SDS011;7151;52.246;4.820;2022-12-11T01:52:18;23.60;;;14.17;;
14141;SDS011;7151;52.246;4.820;2022-12-11T01:54:45;23.47;;;13.87;;
14141;SDS011;7151;52.246;4.820;2022-12-11T01:57:12;23.50;;;13.37;;
14141;SDS011;7151;52.246;4.820;2022-12-11T01:59:40;22.57;;;12.70;;
14141;SDS011;7151;52.246;4.820;2022-12-11T02:02:14;19.30;;;12.23;;
14141;SDS011;7151;52.246;4.820;2022-12-11T02:04:46;24.13;;;12.73;;
14141;SDS011;7151;52.246;4.820;2022-12-11T02:07:13;20.90;;;11.67;;
14141;SDS011;7151;52.246;4.820;2022-12-11T02:09:39;21.93;;;12.67;;
14141;SDS011;7151;52.246;4.820;2022-12-11T02:17:06;21.93;;;11.50;;
14141;SDS011;7151;52.246;4.820;2022-12-11T02:31:44;21.60;;;11.80;;
14141;SDS011;7151;52.246;4.820;2022-12-11T02:36:40;21.20;;;12.23;;
14141;SDS011;7151;52.246;4.820;2022-12-11T02:39:11;21.83;;;11.90;;
14141;SDS011;7151;52.246;4.820;2022-12-11T02:41:41;17.10;;;10.47;;
14141;SDS011;7151;52.246;4.820;2022-12-11T02:44:11;19.00;;;10.87;;
14141;SDS011;7151;52.246;4.820;2022-12-11T02:46:39;22.30;;;11.73;;
14141;SDS011;7151;52.246;4.820;2022-12-11T02:49:06;16.33;;;10.53;;
14141;SDS011;7151;52.246;4.820;2022-12-11T02:51:37;19.13;;;10.60;;
14141;SDS011;7151;52.246;4.820;2022-12-11T02:54:05;17.63;;;10.40;;
14141;SDS011;7151;52.246;4.820;2022-12-11T02:56:44;17.03;;;10.13;;
14141;SDS011;7151;52.246;4.820;2022-12-11T02:59:20;18.73;;;10.10;;
14141;SDS011;7151;52.246;4.820;2022-12-11T03:01:52;15.47;;;9.57;;
14141;SDS011;7151;52.246;4.820;2022-12-11T03:04:18;15.17;;;9.63;;
14141;SDS011;7151;52.246;4.820;2022-12-11T03:06:48;14.60;;;9.47;;
14141;SDS011;7151;52.246;4.820;2022-12-11T03:09:18;13.70;;;9.07;;
14141;SDS011;7151;52.246;4.820;2022-12-11T03:11:44;14.40;;;9.07;;
14141;SDS011;7151;52.246;4.820;2022-12-11T03:14:10;17.00;;;9.03;;
14141;SDS011;7151;52.246;4.820;2022-12-11T03:16:37;13.30;;;8.33;;
14141;SDS011;7151;52.246;4.820;2022-12-11T03:24:20;17.13;;;8.20;;
14141;SDS011;7151;52.246;4.820;2022-12-11T03:27:06;18.50;;;9.00;;
14141;SDS011;7151;52.246;4.820;2022-12-11T03:29:39;16.63;;;9.13;;
14141;SDS011;7151;52.246;4.820;2022-12-11T03:32:13;14.90;;;8.57;;
14141;SDS011;7151;52.246;4.820;2022-12-11T03:34:54;14.53;;;8.67;;
14141;SDS011;7151;52.246;4.820;2022-12-11T03:37:27;13.90;;;8.37;;
14141;SDS011;7151;52.246;4.820;2022-12-11T03:39:57;16.43;;;9.33;;
14141;SDS011;7151;52.246;4.820;2022-12-11T03:42:26;13.80;;;8.03;;
14141;SDS011;7151;52.246;4.820;2022-12-11T03:44:52;15.40;;;8.73;;
14141;SDS011;7151;52.246;4.820;2022-12-11T03:47:21;14.10;;;8.00;;
14141;SDS011;7151;52.246;4.820;2022-12-11T03:49:49;14.23;;;8.57;;
14141;SDS011;7151;52.246;4.820;2022-12-11T03:52:16;14.60;;;8.40;;
14141;SDS011;7151;52.246;4.820;2022-12-11T03:54:44;17.43;;;9.33;;
14141;SDS011;7151;52.246;4.820;2022-12-11T03:57:13;13.23;;;8.93;;
14141;SDS011;7151;52.246;4.820;2022-12-11T03:59:43;17.63;;;9.60;;
14141;SDS011;7151;52.246;4.820;2022-12-11T04:02:08;15.50;;;8.33;;
14141;SDS011;7151;52.246;4.820;2022-12-11T04:04:35;13.00;;;8.57;;
14141;SDS011;7151;52.246;4.820;2022-12-11T04:07:01;16.67;;;9.17;;
14141;SDS011;7151;52.246;4.820;2022-12-11T04:09:27;16.63;;;8.87;;
14141;SDS011;7151;52.246;4.820;2022-12-11T04:11:53;14.33;;;7.90;;
14141;SDS011;7151;52.246;4.820;2022-12-11T04:14:18;15.97;;;8.97;;
14141;SDS011;7151;52.246;4.820;2022-12-11T04:17:03;13.77;;;8.50;;
14141;SDS011;7151;52.246;4.820;2022-12-11T04:19:29;16.23;;;9.10;;
14141;SDS011;7151;52.246;4.820;2022-12-11T04:22:13;14.33;;;7.87;;
14141;SDS011;7151;52.246;4.820;2022-12-11T04:25:00;12.97;;;8.23;;
14141;SDS011;7151;52.246;4.820;2022-12-11T04:27:27;15.03;;;8.23;;
14141;SDS011;7151;52.246;4.820;2022-12-11T04:30:13;15.20;;;8.33;;
14141;SDS011;7151;52.246;4.820;2022-12-11T04:32:41;14.50;;;7.90;;
14141;SDS011;7151;52.246;4.820;2022-12-11T04:35:07;15.90;;;9.37;;
14141;SDS011;7151;52.246;4.820;2022-12-11T04:37:34;18.73;;;8.47;;
14141;SDS011;7151;52.246;4.820;2022-12-11T04:40:00;14.27;;;7.73;;
14141;SDS011;7151;52.246;4.820;2022-12-11T04:42:27;15.77;;;8.73;;
14141;SDS011;7151;52.246;4.820;2022-12-11T04:44:52;17.90;;;9.37;;
14141;SDS011;7151;52.246;4.820;2022-12-11T04:47:18;12.27;;;8.27;;
14141;SDS011;7151;52.246;4.820;2022-12-11T04:49:44;14.60;;;8.40;;
14141;SDS011;7151;52.246;4.820;2022-12-11T04:52:09;14.40;;;8.37;;
14141;SDS011;7151;52.246;4.820;2022-12-11T04:54:35;17.17;;;8.67;;
14141;SDS011;7151;52.246;4.820;2022-12-11T04:57:00;15.10;;;8.83;;
14141;SDS011;7151;52.246;4.820;2022-12-11T04:59:26;11.67;;;7.20;;
14141;SDS011;7151;52.246;4.820;2022-12-11T05:01:51;12.97;;;7.13;;
14141;SDS011;7151;52.246;4.820;2022-12-11T05:04:17;12.90;;;7.50;;
14141;SDS011;7151;52.246;4.820;2022-12-11T05:06:43;14.73;;;8.80;;
14141;SDS011;7151;52.246;4.820;2022-12-11T05:09:11;14.87;;;7.70;;
14141;SDS011;7151;52.246;4.820;2022-12-11T05:11:37;13.60;;;7.63;;
14141;SDS011;7151;52.246;4.820;2022-12-11T05:14:03;15.53;;;8.90;;
14141;SDS011;7151;52.246;4.820;2022-12-11T05:16:29;14.33;;;7.53;;
14141;SDS011;7151;52.246;4.820;2022-12-11T05:18:54;15.10;;;9.10;;
14141;SDS011;7151;52.246;4.820;2022-12-11T05:21:20;12.03;;;7.63;;
14141;SDS011;7151;52.246;4.820;2022-12-11T05:23:46;15.47;;;8.67;;
14141;SDS011;7151;52.246;4.820;2022-12-11T05:26:13;14.90;;;8.57;;
14141;SDS011;7151;52.246;4.820;2022-12-11T05:28:41;16.43;;;8.73;;
14141;SDS011;7151;52.246;4.820;2022-12-11T05:31:09;17.13;;;9.73;;
14141;SDS011;7151;52.246;4.820;2022-12-11T05:33:38;15.10;;;9.20;;
14141;SDS011;7151;52.246;4.820;2022-12-11T05:36:04;16.03;;;9.07;;
14141;SDS011;7151;52.246;4.820;2022-12-11T05:38:30;15.83;;;9.63;;
14141;SDS011;7151;52.246;4.820;2022-12-11T05:41:06;15.73;;;9.27;;
14141;SDS011;7151;52.246;4.820;2022-12-11T05:43:32;16.13;;;9.67;;
14141;SDS011;7151;52.246;4.820;2022-12-11T05:46:06;15.40;;;8.80;;
14141;SDS011;7151;52.246;4.820;2022-12-11T05:48:37;17.83;;;9.90;;
14141;SDS011;7151;52.246;4.820;2022-12-11T05:51:03;17.23;;;9.33;;
14141;SDS011;7151;52.246;4.820;2022-12-11T05:53:30;15.70;;;9.50;;
14141;SDS011;7151;52.246;4.820;2022-12-11T05:56:03;14.20;;;9.13;;
14141;SDS011;7151;52.246;4.820;2022-12-11T05:58:30;14.87;;;9.90;;
14141;SDS011;7151;52.246;4.820;2022-12-11T06:00:57;16.60;;;9.80;;
14141;SDS011;7151;52.246;4.820;2022-12-11T06:03:23;14.17;;;9.33;;
14141;SDS011;7151;52.246;4.820;2022-12-11T06:05:49;19.50;;;10.13;;
14141;SDS011;7151;52.246;4.820;2022-12-11T06:08:15;17.07;;;9.70;;
14141;SDS011;7151;52.246;4.820;2022-12-11T06:10:47;15.67;;;9.67;;
14141;SDS011;7151;52.246;4.820;2022-12-11T06:13:13;15.67;;;8.87;;
14141;SDS011;7151;52.246;4.820;2022-12-11T06:15:40;15.63;;;9.77;;
14141;SDS011;7151;52.246;4.820;2022-12-11T06:18:05;17.30;;;8.77;;
14141;SDS011;7151;52.246;4.820;2022-12-11T06:20:31;16.83;;;7.83;;
14141;SDS011;7151;52.246;4.820;2022-12-11T06:22:58;15.83;;;9.00;;
14141;SDS011;7151;52.246;4.820;2022-12-11T06:25:24;13.73;;;8.50;;
14141;SDS011;7151;52.246;4.820;2022-12-11T06:27:50;14.87;;;9.33;;
14141;SDS011;7151;52.246;4.820;2022-12-11T06:30:16;16.40;;;8.53;;
14141;SDS011;7151;52.246;4.820;2022-12-11T06:32:42;14.37;;;8.80;;
14141;SDS011;7151;52.246;4.820;2022-12-11T06:35:08;13.70;;;8.17;;
14141;SDS011;7151;52.246;4.820;2022-12-11T06:37:34;14.90;;;8.97;;
14141;SDS011;7151;52.246;4.820;2022-12-11T06:40:01;12.77;;;7.50;;
14141;SDS011;7151;52.246;4.820;2022-12-11T06:42:30;13.07;;;7.47;;
14141;SDS011;7151;52.246;4.820;2022-12-11T06:44:56;15.17;;;8.57;;
14141;SDS011;7151;52.246;4.820;2022-12-11T06:47:24;13.03;;;7.10;;
14141;SDS011;7151;52.246;4.820;2022-12-11T06:49:53;10.23;;;6.33;;
14141;SDS011;7151;52.246;4.820;2022-12-11T06:52:20;10.57;;;6.30;;
14141;SDS011;7151;52.246;4.820;2022-12-11T06:54:46;10.00;;;6.27;;
14141;SDS011;7151;52.246;4.820;2022-12-11T06:57:11;9.83;;;6.57;;
14141;SDS011;7151;52.246;4.820;2022-12-11T06:59:37;11.03;;;6.33;;
14141;SDS011;7151;52.246;4.820;2022-12-11T07:02:03;11.77;;;6.87;;
14141;SDS011;7151;52.246;4.820;2022-12-11T07:04:28;9.93;;;6.67;;
14141;SDS011;7151;52.246;4.820;2022-12-11T07:06:54;12.47;;;6.97;;
14141;SDS011;7151;52.246;4.820;2022-12-11T07:09:21;13.23;;;7.53;;
14141;SDS011;7151;52.246;4.820;2022-12-11T07:11:50;14.10;;;7.47;;
14141;SDS011;7151;52.246;4.820;2022-12-11T07:14:16;13.37;;;7.90;;
14141;SDS011;7151;52.246;4.820;2022-12-11T07:16:43;12.27;;;7.53;;
14141;SDS011;7151;52.246;4.820;2022-12-11T07:19:08;14.50;;;8.23;;
14141;SDS011;7151;52.246;4.820;2022-12-11T07:21:35;12.13;;;7.13;;
14141;SDS011;7151;52.246;4.820;2022-12-11T07:24:01;14.73;;;7.97;;
14141;SDS011;7151;52.246;4.820;2022-12-11T07:26:26;16.30;;;8.03;;
14141;SDS011;7151;52.246;4.820;2022-12-11T07:28:55;15.07;;;7.67;;
14141;SDS011;7151;52.246;4.820;2022-12-11T07:31:21;11.27;;;6.67;;
14141;SDS011;7151;52.246;4.820;2022-12-11T07:33:55;12.77;;;7.10;;
14141;SDS011;7151;52.246;4.820;2022-12-11T07:36:23;11.60;;;7.07;;
14141;SDS011;7151;52.246;4.820;2022-12-11T07:38:49;13.67;;;7.10;;
14141;SDS011;7151;52.246;4.820;2022-12-11T07:41:15;14.23;;;7.50;;
14141;SDS011;7151;52.246;4.820;2022-12-11T07:43:42;11.03;;;7.30;;
14141;SDS011;7151;52.246;4.820;2022-12-11T07:46:10;15.67;;;7.90;;
14141;SDS011;7151;52.246;4.820;2022-12-11T07:48:38;14.23;;;7.73;;
14141;SDS011;7151;52.246;4.820;2022-12-11T07:51:11;15.73;;;7.93;;
14141;SDS011;7151;52.246;4.820;2022-12-11T07:53:57;14.27;;;7.20;;
14141;SDS011;7151;52.246;4.820;2022-12-11T07:56:25;14.97;;;8.57;;
14141;SDS011;7151;52.246;4.820;2022-12-11T07:58:52;12.90;;;8.07;;
14141;SDS011;7151;52.246;4.820;2022-12-11T08:01:22;16.67;;;8.53;;
14141;SDS011;7151;52.246;4.820;2022-12-11T08:03:52;16.67;;;8.37;;
14141;SDS011;7151;52.246;4.820;2022-12-11T08:06:19;13.90;;;8.37;;
14141;SDS011;7151;52.246;4.820;2022-12-11T08:08:48;16.30;;;8.60;;
14141;SDS011;7151;52.246;4.820;2022-12-11T08:11:14;18.07;;;9.17;;
14141;SDS011;7151;52.246;4.820;2022-12-11T08:13:40;16.87;;;9.13;;
14141;SDS011;7151;52.246;4.820;2022-12-11T08:16:09;14.70;;;8.80;;
14141;SDS011;7151;52.246;4.820;2022-12-11T08:18:36;15.67;;;8.97;;
14141;SDS011;7151;52.246;4.820;2022-12-11T08:21:06;16.93;;;9.17;;
14141;SDS011;7151;52.246;4.820;2022-12-11T08:23:35;17.43;;;8.97;;
14141;SDS011;7151;52.246;4.820;2022-12-11T08:26:05;16.00;;;9.50;;
14141;SDS011;7151;52.246;4.820;2022-12-11T08:28:33;15.90;;;9.10;;
14141;SDS011;7151;52.246;4.820;2022-12-11T08:30:59;14.57;;;8.63;;
14141;SDS011;7151;52.246;4.820;2022-12-11T08:33:27;15.77;;;9.27;;
14141;SDS011;7151;52.246;4.820;2022-12-11T08:35:53;19.77;;;10.00;;
14141;SDS011;7151;52.246;4.820;2022-12-11T08:38:18;18.37;;;8.90;;
14141;SDS011;7151;52.246;4.820;2022-12-11T08:40:44;16.73;;;8.93;;
14141;SDS011;7151;52.246;4.820;2022-12-11T08:43:09;16.90;;;9.17;;
14141;SDS011;7151;52.246;4.820;2022-12-11T08:45:35;17.53;;;9.17;;
14141;SDS011;7151;52.246;4.820;2022-12-11T08:48:01;15.70;;;9.00;;
14141;SDS011;7151;52.246;4.820;2022-12-11T08:50:27;14.93;;;8.60;;
14141;SDS011;7151;52.246;4.820;2022-12-11T08:52:53;13.03;;;8.40;;
14141;SDS011;7151;52.246;4.820;2022-12-11T08:55:19;14.77;;;8.60;;
14141;SDS011;7151;52.246;4.820;2022-12-11T08:57:46;17.37;;;9.80;;
14141;SDS011;7151;52.246;4.820;2022-12-11T09:00:12;18.80;;;9.57;;
14141;SDS011;7151;52.246;4.820;2022-12-11T09:02:39;14.90;;;8.10;;
14141;SDS011;7151;52.246;4.820;2022-12-11T09:05:05;13.63;;;9.07;;
14141;SDS011;7151;52.246;4.820;2022-12-11T09:07:34;18.97;;;9.37;;
14141;SDS011;7151;52.246;4.820;2022-12-11T09:10:01;15.73;;;8.80;;
14141;SDS011;7151;52.246;4.820;2022-12-11T09:12:28;16.27;;;9.80;;
14141;SDS011;7151;52.246;4.820;2022-12-11T09:14:53;17.03;;;8.57;;
14141;SDS011;7151;52.246;4.820;2022-12-11T09:17:19;14.40;;;9.33;;
14141;SDS011;7151;52.246;4.820;2022-12-11T09:19:45;16.47;;;9.50;;
14141;SDS011;7151;52.246;4.820;2022-12-11T09:22:10;16.87;;;9.53;;
14141;SDS011;7151;52.246;4.820;2022-12-11T09:24:36;17.53;;;9.57;;
14141;SDS011;7151;52.246;4.820;2022-12-11T09:27:03;17.40;;;9.47;;
14141;SDS011;7151;52.246;4.820;2022-12-11T09:29:30;18.80;;;9.67;;
14141;SDS011;7151;52.246;4.820;2022-12-11T09:31:56;14.07;;;8.33;;
14141;SDS011;7151;52.246;4.820;2022-12-11T09:34:21;18.53;;;8.90;;
14141;SDS011;7151;52.246;4.820;2022-12-11T09:36:47;15.40;;;8.33;;
14141;SDS011;7151;52.246;4.820;2022-12-11T09:39:14;12.57;;;7.53;;
14141;SDS011;7151;52.246;4.820;2022-12-11T09:44:30;14.50;;;8.53;;
14141;SDS011;7151;52.246;4.820;2022-12-11T09:46:56;16.53;;;9.30;;
14141;SDS011;7151;52.246;4.820;2022-12-11T09:49:24;12.40;;;8.83;;
14141;SDS011;7151;52.246;4.820;2022-12-11T09:55:17;17.70;;;10.37;;
14141;SDS011;7151;52.246;4.820;2022-12-11T09:58:05;18.97;;;10.43;;
14141;SDS011;7151;52.246;4.820;2022-12-11T10:00:40;18.03;;;11.13;;
14141;SDS011;7151;52.246;4.820;2022-12-11T10:11:45;19.33;;;11.07;;
14141;SDS011;7151;52.246;4.820;2022-12-11T10:14:37;22.40;;;11.73;;
14141;SDS011;7151;52.246;4.820;2022-12-11T10:19:36;17.10;;;9.60;;
14141;SDS011;7151;52.246;4.820;2022-12-11T10:22:03;17.50;;;9.20;;
14141;SDS011;7151;52.246;4.820;2022-12-11T10:24:38;14.93;;;9.83;;
14141;SDS011;7151;52.246;4.820;2022-12-11T10:27:16;15.40;;;10.23;;
14141;SDS011;7151;52.246;4.820;2022-12-11T10:29:50;19.83;;;10.40;;
14141;SDS011;7151;52.246;4.820;2022-12-11T10:32:24;19.77;;;10.33;;
14141;SDS011;7151;52.246;4.820;2022-12-11T10:35:00;17.57;;;9.70;;
14141;SDS011;7151;52.246;4.820;2022-12-11T10:37:29;16.60;;;9.53;;
14141;SDS011;7151;52.246;4.820;2022-12-11T10:39:54;15.87;;;9.80;;
14141;SDS011;7151;52.246;4.820;2022-12-11T10:42:20;17.07;;;9.77;;
14141;SDS011;7151;52.246;4.820;2022-12-11T10:44:54;17.23;;;10.17;;
14141;SDS011;7151;52.246;4.820;2022-12-11T10:47:21;18.07;;;10.40;;
14141;SDS011;7151;52.246;4.820;2022-12-11T10:49:54;17.70;;;10.70;;
14141;SDS011;7151;52.246;4.820;2022-12-11T10:52:32;16.83;;;10.17;;
14141;SDS011;7151;52.246;4.820;2022-12-11T10:55:06;17.63;;;10.30;;
14141;SDS011;7151;52.246;4.820;2022-12-11T10:57:43;18.43;;;10.73;;
14141;SDS011;7151;52.246;4.820;2022-12-11T11:03:22;17.73;;;10.20;;
14141;SDS011;7151;52.246;4.820;2022-12-11T11:06:00;18.80;;;10.47;;
14141;SDS011;7151;52.246;4.820;2022-12-11T11:08:29;17.17;;;10.67;;
14141;SDS011;7151;52.246;4.820;2022-12-11T11:11:04;17.00;;;9.67;;
14141;SDS011;7151;52.246;4.820;2022-12-11T11:13:30;19.43;;;12.40;;
14141;SDS011;7151;52.246;4.820;2022-12-11T11:15:59;19.00;;;10.60;;
14141;SDS011;7151;52.246;4.820;2022-12-11T11:18:30;18.40;;;10.17;;
14141;SDS011;7151;52.246;4.820;2022-12-11T11:20:57;17.90;;;10.17;;
14141;SDS011;7151;52.246;4.820;2022-12-11T11:23:24;21.63;;;10.83;;
14141;SDS011;7151;52.246;4.820;2022-12-11T11:25:55;16.80;;;9.90;;
14141;SDS011;7151;52.246;4.820;2022-12-11T11:28:23;18.37;;;10.33;;
14141;SDS011;7151;52.246;4.820;2022-12-11T11:31:11;18.20;;;10.13;;
14141;SDS011;7151;52.246;4.820;2022-12-11T11:33:54;16.80;;;9.77;;
14141;SDS011;7151;52.246;4.820;2022-12-11T11:36:22;19.70;;;10.27;;
14141;SDS011;7151;52.246;4.820;2022-12-11T11:38:58;18.27;;;10.30;;
14141;SDS011;7151;52.246;4.820;2022-12-11T11:44:13;23.87;;;12.10;;
14141;SDS011;7151;52.246;4.820;2022-12-11T11:46:43;18.63;;;9.43;;
14141;SDS011;7151;52.246;4.820;2022-12-11T11:51:56;23.93;;;10.37;;
14141;SDS011;7151;52.246;4.820;2022-12-11T11:54:36;21.03;;;10.23;;
14141;SDS011;7151;52.246;4.820;2022-12-11T11:57:14;21.37;;;11.00;;
14141;SDS011;7151;52.246;4.820;2022-12-11T11:59:50;17.90;;;9.80;;
14141;SDS011;7151;52.246;4.820;2022-12-11T12:02:22;20.83;;;10.80;;
14141;SDS011;7151;52.246;4.820;2022-12-11T12:04:47;17.57;;;9.50;;
14141;SDS011;7151;52.246;4.820;2022-12-11T12:12:49;19.13;;;10.63;;
14141;SDS011;7151;52.246;4.820;2022-12-11T12:18:24;18.63;;;9.30;;
14141;SDS011;7151;52.246;4.820;2022-12-11T12:21:02;19.53;;;11.23;;
14141;SDS011;7151;52.246;4.820;2022-12-11T12:26:51;19.63;;;9.20;;
14141;SDS011;7151;52.246;4.820;2022-12-11T12:29:43;17.53;;;9.90;;
14141;SDS011;7151;52.246;4.820;2022-12-11T12:37:49;17.60;;;9.27;;
14141;SDS011;7151;52.246;4.820;2022-12-11T12:40:27;13.47;;;8.17;;
14141;SDS011;7151;52.246;4.820;2022-12-11T12:45:54;13.47;;;8.17;;
14141;SDS011;7151;52.246;4.820;2022-12-11T12:48:24;13.90;;;7.67;;
14141;SDS011;7151;52.246;4.820;2022-12-11T12:50:51;13.60;;;7.87;;
14141;SDS011;7151;52.246;4.820;2022-12-11T12:53:24;13.53;;;8.30;;
14141;SDS011;7151;52.246;4.820;2022-12-11T12:55:54;14.90;;;8.97;;
14141;SDS011;7151;52.246;4.820;2022-12-11T12:58:39;15.67;;;9.73;;
14141;SDS011;7151;52.246;4.820;2022-12-11T13:01:14;15.67;;;9.40;;
14141;SDS011;7151;52.246;4.820;2022-12-11T13:03:57;16.90;;;9.60;;
14141;SDS011;7151;52.246;4.820;2022-12-11T13:06:41;20.00;;;10.47;;
14141;SDS011;7151;52.246;4.820;2022-12-11T13:11:47;24.07;;;10.60;;
14141;SDS011;7151;52.246;4.820;2022-12-11T13:16:43;23.90;;;11.73;;
14141;SDS011;7151;52.246;4.820;2022-12-11T13:21:58;22.40;;;11.07;;
14141;SDS011;7151;52.246;4.820;2022-12-11T13:24:30;21.47;;;10.77;;
14141;SDS011;7151;52.246;4.820;2022-12-11T13:27:07;21.50;;;10.63;;
14141;SDS011;7151;52.246;4.820;2022-12-11T13:29:47;24.80;;;11.33;;
14141;SDS011;7151;52.246;4.820;2022-12-11T13:34:41;20.17;;;10.60;;
14141;SDS011;7151;52.246;4.820;2022-12-11T13:37:20;23.33;;;11.13;;
14141;SDS011;7151;52.246;4.820;2022-12-11T13:39:57;24.57;;;11.67;;
14141;SDS011;7151;52.246;4.820;2022-12-11T13:42:26;20.33;;;11.77;;
14141;SDS011;7151;52.246;4.820;2022-12-11T13:44:57;19.40;;;10.80;;
14141;SDS011;7151;52.246;4.820;2022-12-11T13:47:23;18.47;;;9.70;;
14141;SDS011;7151;52.246;4.820;2022-12-11T13:49:52;19.17;;;10.30;;
14141;SDS011;7151;52.246;4.820;2022-12-11T13:52:21;21.50;;;11.87;;
14141;SDS011;7151;52.246;4.820;2022-12-11T13:54:53;23.23;;;11.83;;
14141;SDS011;7151;52.246;4.820;2022-12-11T13:57:21;23.97;;;11.53;;
14141;SDS011;7151;52.246;4.820;2022-12-11T13:59:50;24.90;;;12.10;;
14141;SDS011;7151;52.246;4.820;2022-12-11T14:02:24;26.60;;;11.57;;
14141;SDS011;7151;52.246;4.820;2022-12-11T14:05:04;20.33;;;12.33;;
14141;SDS011;7151;52.246;4.820;2022-12-11T14:07:34;20.13;;;9.93;;
14141;SDS011;7151;52.246;4.820;2022-12-11T14:10:28;19.33;;;10.60;;
14141;SDS011;7151;52.246;4.820;2022-12-11T14:12:58;20.63;;;10.80;;
14141;SDS011;7151;52.246;4.820;2022-12-11T14:15:28;23.77;;;11.10;;
14141;SDS011;7151;52.246;4.820;2022-12-11T14:17:55;21.60;;;11.67;;
14141;SDS011;7151;52.246;4.820;2022-12-11T14:20:24;17.93;;;10.50;;
14141;SDS011;7151;52.246;4.820;2022-12-11T14:25:40;20.83;;;11.37;;
14141;SDS011;7151;52.246;4.820;2022-12-11T14:28:14;20.57;;;11.07;;
14141;SDS011;7151;52.246;4.820;2022-12-11T14:30:43;20.33;;;11.47;;
14141;SDS011;7151;52.246;4.820;2022-12-11T14:33:12;22.70;;;11.90;;
14141;SDS011;7151;52.246;4.820;2022-12-11T14:35:40;22.63;;;11.70;;
14141;SDS011;7151;52.246;4.820;2022-12-11T14:38:28;19.17;;;10.30;;
14141;SDS011;7151;52.246;4.820;2022-12-11T14:41:17;22.30;;;11.70;;
14141;SDS011;7151;52.246;4.820;2022-12-11T14:43:59;21.87;;;11.47;;
14141;SDS011;7151;52.246;4.820;2022-12-11T14:46:32;22.13;;;11.17;;
14141;SDS011;7151;52.246;4.820;2022-12-11T14:49:07;22.20;;;10.87;;
14141;SDS011;7151;52.246;4.820;2022-12-11T14:51:48;21.50;;;11.40;;
14141;SDS011;7151;52.246;4.820;2022-12-11T14:54:25;20.03;;;10.20;;
14141;SDS011;7151;52.246;4.820;2022-12-11T14:56:56;18.77;;;11.63;;
14141;SDS011;7151;52.246;4.820;2022-12-11T14:59:24;20.37;;;10.63;;
14141;SDS011;7151;52.246;4.820;2022-12-11T15:02:01;19.57;;;10.30;;
14141;SDS011;7151;52.246;4.820;2022-12-11T15:04:42;19.57;;;11.03;;
14141;SDS011;7151;52.246;4.820;2022-12-11T15:07:20;20.80;;;10.97;;
14141;SDS011;7151;52.246;4.820;2022-12-11T15:09:46;17.20;;;9.97;;
14141;SDS011;7151;52.246;4.820;2022-12-11T15:12:12;21.93;;;10.93;;
14141;SDS011;7151;52.246;4.820;2022-12-11T15:15:02;18.83;;;10.97;;
14141;SDS011;7151;52.246;4.820;2022-12-11T15:17:31;20.07;;;11.27;;
14141;SDS011;7151;52.246;4.820;2022-12-11T15:20:02;27.40;;;11.77;;
14141;SDS011;7151;52.246;4.820;2022-12-11T15:22:32;21.60;;;11.20;;
14141;SDS011;7151;52.246;4.820;2022-12-11T15:24:59;20.33;;;10.53;;
14141;SDS011;7151;52.246;4.820;2022-12-11T15:27:29;19.27;;;9.77;;
14141;SDS011;7151;52.246;4.820;2022-12-11T15:30:53;24.70;;;12.17;;
14141;SDS011;7151;52.246;4.820;2022-12-11T15:33:03;21.03;;;11.43;;
14141;SDS011;7151;52.246;4.820;2022-12-11T15:35:34;22.80;;;11.43;;
14141;SDS011;7151;52.246;4.820;2022-12-11T15:38:02;22.00;;;10.17;;
14141;SDS011;7151;52.246;4.820;2022-12-11T15:40:27;20.67;;;11.07;;
14141;SDS011;7151;52.246;4.820;2022-12-11T15:42:53;21.87;;;11.43;;
14141;SDS011;7151;52.246;4.820;2022-12-11T15:45:21;26.53;;;10.83;;
14141;SDS011;7151;52.246;4.820;2022-12-11T15:47:50;21.17;;;10.97;;
14141;SDS011;7151;52.246;4.820;2022-12-11T15:52:49;22.63;;;10.57;;
14141;SDS011;7151;52.246;4.820;2022-12-11T15:55:15;20.70;;;11.97;;
14141;SDS011;7151;52.246;4.820;2022-12-11T15:57:44;22.97;;;11.77;;
14141;SDS011;7151;52.246;4.820;2022-12-11T16:00:15;17.83;;;11.13;;
14141;SDS011;7151;52.246;4.820;2022-12-11T16:02:43;21.13;;;12.00;;
14141;SDS011;7151;52.246;4.820;2022-12-11T16:05:09;21.30;;;11.70;;
14141;SDS011;7151;52.246;4.820;2022-12-11T16:07:35;22.97;;;12.17;;
14141;SDS011;7151;52.246;4.820;2022-12-11T16:10:02;17.57;;;10.63;;
14141;SDS011;7151;52.246;4.820;2022-12-11T16:12:29;20.07;;;11.73;;
14141;SDS011;7151;52.246;4.820;2022-12-11T16:14:54;20.33;;;10.57;;
14141;SDS011;7151;52.246;4.820;2022-12-11T16:17:20;18.20;;;10.20;;
14141;SDS011;7151;52.246;4.820;2022-12-11T16:19:46;22.13;;;11.10;;
14141;SDS011;7151;52.246;4.820;2022-12-11T16:22:12;18.40;;;10.13;;
14141;SDS011;7151;52.246;4.820;2022-12-11T16:24:38;19.63;;;10.90;;
14141;SDS011;7151;52.246;4.820;2022-12-11T16:27:05;19.83;;;11.87;;